createdAt,value
2023-04-25T00:02:00.754Z,80.95
2023-04-25T00:04:31.042Z,81.93
2023-04-25T00:06:58.969Z,81.76
2023-04-25T00:09:29.250Z,81.77
2023-04-25T00:11:56.935Z,82.65
2023-04-25T00:14:24.546Z,82.92
2023-04-25T00:16:52.762Z,83.05
2023-04-25T00:19:20.376Z,80.39
2023-04-25T00:21:48.078Z,81.27
2023-04-25T00:24:16.318Z,79.53
2023-04-25T00:26:45.410Z,80.49
2023-04-25T00:29:13.231Z,78.07
2023-04-25T00:31:41.098Z,77.54
2023-04-25T00:34:09.257Z,78.50
2023-04-25T00:36:37.248Z,79.58
2023-04-25T00:39:05.548Z,76.88
2023-04-25T00:41:33.181Z,78.47
2023-04-25T00:44:04.229Z,79.08
2023-04-25T00:46:32.962Z,79.33
2023-04-25T00:49:00.609Z,76.91
2023-04-25T00:51:28.603Z,76.90
2023-04-25T00:53:56.514Z,78.72
2023-04-25T00:56:24.280Z,77.90
2023-04-25T00:58:55.216Z,77.43
2023-04-25T01:01:24.550Z,77.84
2023-04-25T01:03:52.656Z,76.98
2023-04-25T01:06:21.091Z,77.74
2023-04-25T01:08:49.798Z,78.94
2023-04-25T01:11:17.484Z,78.04
2023-04-25T01:13:45.568Z,78.15
2023-04-25T01:16:13.307Z,79.85
2023-04-25T01:18:43.311Z,82.20
2023-04-25T01:21:14.014Z,82.44
2023-04-25T01:23:42.748Z,80.51
2023-04-25T01:26:12.203Z,81.06
2023-04-25T01:28:42.135Z,82.19
2023-04-25T01:31:10.484Z,81.25
2023-04-25T01:33:39.782Z,81.29
2023-04-25T01:36:08.353Z,81.37
2023-04-25T01:38:37.825Z,81.52
2023-04-25T01:41:05.845Z,81.86
2023-04-25T01:43:33.496Z,83.81
2023-04-25T01:46:01.796Z,84.21
2023-04-25T01:48:29.514Z,84.54
2023-04-25T01:50:57.182Z,84.94
2023-04-25T01:53:25.814Z,84.68
2023-04-25T01:55:54.852Z,84.95
2023-04-25T01:58:22.548Z,84.92
2023-04-25T02:00:51.072Z,84.84
2023-04-25T02:03:19.007Z,84.56
2023-04-25T02:05:46.779Z,84.00
2023-04-25T02:08:15.525Z,84.24
2023-04-25T02:10:43.381Z,84.52
2023-04-25T02:13:12.474Z,84.40
2023-04-25T02:15:40.230Z,84.21
2023-04-25T02:18:08.505Z,84.39
2023-04-25T02:20:37.215Z,83.59
2023-04-25T02:23:05.037Z,83.45
2023-04-25T02:25:32.753Z,83.46
2023-04-25T02:28:00.420Z,83.93
2023-04-25T02:30:29.556Z,83.94
2023-04-25T02:32:57.693Z,84.00
2023-04-25T02:35:25.437Z,85.03
2023-04-25T02:37:53.153Z,85.37
2023-04-25T02:40:21.015Z,84.78
2023-04-25T02:42:48.717Z,85.73
2023-04-25T02:45:16.526Z,85.45
2023-04-25T02:47:45.555Z,85.29
2023-04-25T02:50:13.226Z,84.63
2023-04-25T02:52:41.092Z,84.88
2023-04-25T02:55:09.554Z,85.00
2023-04-25T02:57:37.250Z,84.48
2023-04-25T03:00:06.876Z,85.27
2023-04-25T03:02:34.769Z,85.83
2023-04-25T03:05:04.353Z,85.68
2023-04-25T03:07:32.139Z,84.35
2023-04-25T03:09:59.905Z,84.85
2023-04-25T03:12:27.585Z,85.65
2023-04-25T03:14:55.249Z,84.91
2023-04-25T03:17:23.131Z,84.25
2023-04-25T03:19:50.839Z,85.09
2023-04-25T03:22:19.880Z,85.58
2023-04-25T03:24:47.963Z,85.07
2023-04-25T03:27:15.934Z,85.17
2023-04-25T03:29:43.714Z,85.88
2023-04-25T03:32:11.516Z,85.44
2023-04-25T03:34:39.206Z,85.39
2023-04-25T03:37:06.905Z,85.59
2023-04-25T03:39:36.038Z,86.04
2023-04-25T03:42:03.912Z,86.52
2023-04-25T03:44:31.669Z,86.23
2023-04-25T03:46:59.691Z,86.35
2023-04-25T03:49:27.421Z,86.42
2023-04-25T03:51:55.019Z,86.11
2023-04-25T03:54:22.729Z,85.89
2023-04-25T03:56:51.833Z,85.69
2023-04-25T03:59:19.512Z,85.49
2023-04-25T04:01:47.252Z,85.69
2023-04-25T04:04:15.382Z,85.94
2023-04-25T04:06:43.326Z,86.08
2023-04-25T04:09:12.301Z,86.04
2023-04-25T04:11:40.587Z,86.24
2023-04-25T04:14:11.044Z,86.13
2023-04-25T04:16:38.725Z,85.73
2023-04-25T04:19:06.622Z,85.46
2023-04-25T04:21:34.442Z,85.38
2023-04-25T04:24:02.260Z,85.37
2023-04-25T04:26:30.384Z,85.06
2023-04-25T04:29:00.213Z,85.55
2023-04-25T04:31:29.450Z,85.27
2023-04-25T04:33:57.509Z,85.50
2023-04-25T04:36:27.078Z,85.44
2023-04-25T04:38:54.972Z,85.80
2023-04-25T04:41:22.927Z,85.07
2023-04-25T04:43:50.774Z,85.88
2023-04-25T04:46:19.471Z,85.25
2023-04-25T04:48:48.609Z,85.08
2023-04-25T04:51:16.294Z,85.09
2023-04-25T04:53:43.987Z,84.62
2023-04-25T04:56:11.590Z,84.26
2023-04-25T04:58:39.197Z,84.64
2023-04-25T05:01:07.229Z,84.81
2023-04-25T05:03:35.116Z,84.27
2023-04-25T05:06:04.466Z,84.29
2023-04-25T05:08:32.001Z,84.97
2023-04-25T05:10:59.566Z,84.11
2023-04-25T05:13:27.181Z,84.73
2023-04-25T05:15:54.830Z,84.47
2023-04-25T05:18:23.783Z,84.37
2023-04-25T05:20:51.549Z,84.34
2023-04-25T05:23:20.558Z,83.83
2023-04-25T05:25:52.152Z,83.83
2023-04-25T05:28:19.793Z,83.35
2023-04-25T05:30:47.430Z,82.98
2023-04-25T05:33:15.674Z,83.46
2023-04-25T05:35:43.738Z,83.27
2023-04-25T05:38:11.585Z,82.97
2023-04-25T05:40:40.631Z,82.62
2023-04-25T05:43:08.433Z,82.73
2023-04-25T05:45:36.115Z,82.73
2023-04-25T05:48:04.008Z,82.91
2023-04-25T05:50:31.856Z,82.76
2023-04-25T05:52:59.538Z,82.55
2023-04-25T05:55:27.202Z,82.83
2023-04-25T05:57:56.266Z,82.37
2023-04-25T06:00:24.664Z,82.64
2023-04-25T06:02:52.454Z,83.06
2023-04-25T06:05:20.535Z,82.74
2023-04-25T06:07:48.336Z,82.26
2023-04-25T06:10:16.279Z,82.12
2023-04-25T06:12:44.093Z,81.97
2023-04-25T06:15:24.340Z,82.11
2023-04-25T06:17:56.553Z,83.08
2023-04-25T06:20:25.494Z,82.10
2023-04-25T06:22:53.727Z,80.38
2023-04-25T06:25:21.996Z,78.65
2023-04-25T06:27:51.566Z,79.20
2023-04-25T06:30:23.449Z,79.10
2023-04-25T06:32:51.252Z,78.78
2023-04-25T06:35:19.111Z,78.10
2023-04-25T06:37:46.865Z,77.53
2023-04-25T06:40:14.893Z,76.94
2023-04-25T06:42:42.641Z,78.44
2023-04-25T06:45:11.507Z,78.11
2023-04-25T06:47:40.735Z,79.03
2023-04-25T06:50:09.432Z,79.51
2023-04-25T06:52:37.169Z,79.12
2023-04-25T06:55:06.424Z,79.47
2023-04-25T06:57:34.134Z,79.60
2023-04-25T07:00:02.420Z,76.32
2023-04-25T07:02:30.606Z,78.16
2023-04-25T07:05:00.884Z,77.85
2023-04-25T07:07:28.569Z,78.16
2023-04-25T07:09:56.188Z,78.96
2023-04-25T07:12:24.233Z,80.43
2023-04-25T07:14:51.908Z,79.14
2023-04-25T07:17:19.599Z,79.24
2023-04-25T07:19:47.209Z,79.91
2023-04-25T07:22:16.279Z,77.63
2023-04-25T07:24:43.940Z,78.19
2023-04-25T07:27:11.578Z,78.12
2023-04-25T07:29:39.185Z,79.69
2023-04-25T07:32:07.095Z,79.67
2023-04-25T07:34:38.199Z,81.97
2023-04-25T07:37:06.140Z,81.19
2023-04-25T07:39:36.070Z,80.61
2023-04-25T07:42:04.777Z,79.83
2023-04-25T07:44:32.445Z,81.43
2023-04-25T07:47:03.047Z,80.42
2023-04-25T07:49:31.944Z,81.89
2023-04-25T07:52:00.015Z,80.85
2023-04-25T07:54:27.702Z,79.00
2023-04-25T07:56:56.882Z,79.87
2023-04-25T07:59:24.554Z,78.18
2023-04-25T08:01:52.351Z,78.63
2023-04-25T08:04:20.276Z,79.02
2023-04-25T08:06:48.815Z,78.07
2023-04-25T08:09:16.916Z,78.58
2023-04-25T08:11:44.895Z,77.74
2023-04-25T08:14:14.671Z,78.84
2023-04-25T08:16:44.298Z,78.23
2023-04-25T08:19:12.581Z,78.17
2023-04-25T08:21:40.274Z,78.14
2023-04-25T08:24:08.674Z,78.82
2023-04-25T08:26:38.271Z,79.01
2023-04-25T08:29:06.505Z,77.60
2023-04-25T08:31:35.782Z,77.12
2023-04-25T08:34:03.563Z,76.50
2023-04-25T08:36:39.139Z,76.66
2023-04-25T08:39:08.351Z,76.94
2023-04-25T08:41:38.194Z,75.83
2023-04-25T08:44:07.400Z,75.96
2023-04-25T08:46:36.877Z,75.73
2023-04-25T08:49:04.561Z,74.27
2023-04-25T08:51:34.564Z,74.45
2023-04-25T08:54:28.088Z,74.45
2023-04-25T08:56:59.532Z,74.24
2023-04-25T08:59:27.929Z,73.84
2023-04-25T09:01:57.278Z,72.90
2023-04-25T09:04:25.091Z,71.91
2023-04-25T09:06:53.072Z,71.23
2023-04-25T09:09:20.842Z,70.34
2023-04-25T09:11:48.605Z,70.54
2023-04-25T09:14:18.404Z,70.73
2023-04-25T09:17:14.880Z,70.73
2023-04-25T09:19:42.726Z,70.72
2023-04-25T09:22:10.803Z,71.16
2023-04-25T09:24:40.344Z,70.80
2023-04-25T09:27:08.902Z,68.53
2023-04-25T09:29:38.916Z,67.82
2023-04-25T09:32:16.780Z,66.65
2023-04-25T09:34:49.075Z,66.04
2023-04-25T09:37:20.507Z,65.73
2023-04-25T09:39:49.338Z,66.59
2023-04-25T09:42:18.444Z,67.54
2023-04-25T09:44:47.223Z,67.75
2023-04-25T09:47:19.079Z,67.78
2023-04-25T09:49:46.860Z,66.11
2023-04-25T09:52:19.221Z,66.46
2023-04-25T09:54:47.719Z,65.42
2023-04-25T09:57:16.948Z,65.40
2023-04-25T09:59:49.265Z,66.57
2023-04-25T10:02:21.630Z,64.65
2023-04-25T10:04:53.834Z,65.57
2023-04-25T10:07:22.764Z,65.86
2023-04-25T10:09:51.834Z,66.20
2023-04-25T10:12:20.032Z,67.17
2023-04-25T10:14:48.682Z,67.55
2023-04-25T10:17:19.041Z,67.08
2023-04-25T10:19:47.069Z,66.20
2023-04-25T10:22:19.497Z,66.43
2023-04-25T10:24:48.563Z,65.81
2023-04-25T10:27:17.080Z,67.16
2023-04-25T10:29:45.404Z,67.87
2023-04-25T10:32:13.285Z,69.54
2023-04-25T10:34:47.989Z,69.75
2023-04-25T10:37:16.205Z,68.96
2023-04-25T10:39:44.781Z,67.55
2023-04-25T10:42:13.735Z,64.27
2023-04-25T10:44:41.484Z,61.13
2023-04-25T10:47:10.846Z,58.11
2023-04-25T10:49:40.252Z,56.01
2023-04-25T10:52:17.436Z,59.01
2023-04-25T10:54:48.887Z,62.55
2023-04-25T10:57:32.945Z,63.08
2023-04-25T11:00:02.206Z,60.69
2023-04-25T11:02:30.522Z,61.31
2023-04-25T11:04:58.808Z,62.26
2023-04-25T11:07:52.827Z,63.16
2023-04-25T11:10:28.296Z,63.21
2023-04-25T11:12:56.248Z,63.21
2023-04-25T11:15:25.106Z,62.59
2023-04-25T11:17:53.665Z,61.13
2023-04-25T11:20:21.612Z,62.33
2023-04-25T11:22:52.707Z,61.95
2023-04-25T11:25:21.076Z,62.03
2023-04-25T11:27:53.222Z,62.46
2023-04-25T11:30:22.522Z,61.59
2023-04-25T11:32:50.194Z,61.32
2023-04-25T11:35:18.581Z,61.58
2023-04-25T11:37:46.637Z,58.50
2023-04-25T11:40:16.001Z,57.91
2023-04-25T11:42:46.899Z,56.42
2023-04-25T11:45:15.348Z,56.78
2023-04-25T11:47:43.136Z,59.04
2023-04-25T11:50:12.166Z,58.59
2023-04-25T11:52:40.963Z,58.79
2023-04-25T11:55:11.567Z,59.77
2023-04-25T11:57:42.338Z,59.25
2023-04-25T12:00:15.842Z,58.73
2023-04-25T12:02:47.568Z,57.82
2023-04-25T12:05:31.117Z,55.93
2023-04-25T12:07:59.599Z,55.85
2023-04-25T12:10:28.326Z,54.86
2023-04-25T12:12:57.490Z,55.92
2023-04-25T12:15:27.296Z,56.28
2023-04-25T12:17:56.391Z,56.66
2023-04-25T12:20:27.280Z,56.60
2023-04-25T12:22:55.695Z,55.77
2023-04-25T12:25:36.796Z,57.17
2023-04-25T12:28:16.265Z,56.58
2023-04-25T12:31:00.417Z,57.27
2023-04-25T12:33:30.259Z,56.30
2023-04-25T12:35:59.189Z,54.44
2023-04-25T12:38:27.922Z,54.67
2023-04-25T12:40:56.157Z,52.76
2023-04-25T12:43:25.598Z,53.64
2023-04-25T12:45:54.640Z,54.14
2023-04-25T12:48:22.841Z,54.68
2023-04-25T12:50:51.435Z,57.11
2023-04-25T12:53:19.862Z,55.07
2023-04-25T12:55:48.078Z,55.28
2023-04-25T12:58:15.971Z,54.89
2023-04-25T13:00:45.179Z,57.05
2023-04-25T13:03:13.437Z,56.15
2023-04-25T13:05:42.076Z,55.00
2023-04-25T13:08:10.048Z,54.84
2023-04-25T13:10:39.478Z,53.89
2023-04-25T13:13:07.386Z,53.04
2023-04-25T13:15:35.227Z,53.24
2023-04-25T13:18:05.448Z,54.25
2023-04-25T13:20:33.406Z,53.55
2023-04-25T13:23:02.700Z,55.46
2023-04-25T13:25:31.134Z,54.69
2023-04-25T13:27:58.912Z,55.29
2023-04-25T13:30:27.141Z,55.00
2023-04-25T13:32:57.753Z,55.96
2023-04-25T13:35:26.999Z,57.64
2023-04-25T13:37:54.649Z,57.29
2023-04-25T13:40:24.673Z,56.85
2023-04-25T13:42:53.298Z,55.91
2023-04-25T13:45:21.427Z,55.27
2023-04-25T13:47:49.361Z,56.40
2023-04-25T13:50:17.187Z,55.55
2023-04-25T13:52:46.520Z,56.58
2023-04-25T13:55:14.363Z,56.36
2023-04-25T13:57:42.266Z,56.68
2023-04-25T14:00:10.922Z,57.42
2023-04-25T14:02:39.001Z,56.10
2023-04-25T14:05:07.859Z,57.36
2023-04-25T14:07:36.981Z,56.34
2023-04-25T14:10:08.014Z,57.14
2023-04-25T14:12:36.061Z,56.80
2023-04-25T14:15:04.675Z,57.82
2023-04-25T14:17:32.471Z,56.84
2023-04-25T14:20:00.455Z,56.88
2023-04-25T14:22:28.249Z,56.89
2023-04-25T14:24:55.856Z,56.32
2023-04-25T14:27:25.405Z,57.10
2023-04-25T14:29:54.325Z,55.80
2023-04-25T14:32:22.209Z,55.68
2023-04-25T14:34:49.932Z,55.24
2023-04-25T14:37:17.670Z,54.21
2023-04-25T14:39:46.419Z,54.06
2023-04-25T14:42:14.311Z,54.03
2023-04-25T14:44:43.493Z,53.24
2023-04-25T14:47:11.286Z,54.45
2023-04-25T14:49:39.224Z,53.51
2023-04-25T14:52:07.413Z,53.59
2023-04-25T14:54:35.470Z,53.41
2023-04-25T14:57:03.168Z,52.59
2023-04-25T14:59:30.884Z,52.18
2023-04-25T15:02:00.026Z,52.99
2023-04-25T15:04:27.956Z,53.42
2023-04-25T15:06:56.176Z,53.87
2023-04-25T15:09:24.914Z,53.31
2023-04-25T15:11:52.924Z,52.72
2023-04-25T15:14:20.624Z,52.43
2023-04-25T15:16:48.298Z,51.95
2023-04-25T15:19:17.505Z,51.51
2023-04-25T15:21:45.228Z,51.61
2023-04-25T15:24:13.036Z,51.52
2023-04-25T15:26:41.188Z,50.36
2023-04-25T15:29:08.905Z,51.48
2023-04-25T15:31:36.721Z,51.40
2023-04-25T15:34:04.462Z,52.19
2023-04-25T15:36:33.566Z,51.37
2023-04-25T15:39:01.419Z,52.48
2023-04-25T15:41:28.994Z,52.25
2023-04-25T15:43:56.653Z,51.19
2023-04-25T15:46:24.422Z,52.47
2023-04-25T15:48:52.069Z,52.69
2023-04-25T15:51:19.667Z,52.19
2023-04-25T15:53:48.820Z,50.95
2023-04-25T15:56:16.793Z,50.21
2023-04-25T15:58:44.392Z,50.18
2023-04-25T16:01:12.680Z,51.04
2023-04-25T16:03:40.908Z,51.62
2023-04-25T16:06:09.505Z,51.86
2023-04-25T16:08:37.257Z,52.01
2023-04-25T16:11:06.806Z,51.65
2023-04-25T16:13:35.325Z,51.29
2023-04-25T16:16:03.110Z,51.50
2023-04-25T16:18:30.999Z,50.46
2023-04-25T16:20:58.662Z,50.28
2023-04-25T16:23:27.485Z,50.80
2023-04-25T16:25:55.897Z,50.38
2023-04-25T16:28:25.250Z,51.31
2023-04-25T16:30:52.953Z,50.88
2023-04-25T16:33:20.973Z,50.76
2023-04-25T16:35:50.141Z,50.59
2023-04-25T16:38:18.172Z,50.38
2023-04-25T16:40:45.963Z,49.68
2023-04-25T16:43:13.639Z,50.13
2023-04-25T16:45:42.679Z,49.84
2023-04-25T16:48:10.358Z,50.99
2023-04-25T16:50:38.079Z,51.38
2023-04-25T16:53:05.708Z,50.74
2023-04-25T16:55:33.393Z,51.18
2023-04-25T16:58:01.165Z,51.33
2023-04-25T17:00:28.938Z,52.13
2023-04-25T17:02:58.326Z,51.32
2023-04-25T17:05:26.279Z,51.52
2023-04-25T17:07:53.945Z,50.83
2023-04-25T17:10:21.878Z,51.50
2023-04-25T17:12:49.713Z,51.24
2023-04-25T17:15:17.461Z,50.46
2023-04-25T17:17:45.184Z,51.00
2023-04-25T17:20:14.940Z,51.52
2023-04-25T17:22:42.790Z,50.75
2023-04-25T17:25:11.390Z,51.29
2023-04-25T17:27:39.236Z,50.94
2023-04-25T17:30:08.624Z,51.51
2023-04-25T17:32:36.678Z,51.84
2023-04-25T17:35:05.303Z,51.32
2023-04-25T17:37:34.380Z,51.13
2023-04-25T17:40:02.700Z,50.29
2023-04-25T17:42:30.756Z,49.20
2023-04-25T17:44:58.525Z,49.07
2023-04-25T17:47:26.393Z,49.54
2023-04-25T17:49:54.813Z,49.58
2023-04-25T17:52:22.789Z,49.87
2023-04-25T17:54:51.965Z,50.26
2023-04-25T17:57:21.450Z,50.54
2023-04-25T17:59:49.537Z,50.84
2023-04-25T18:02:17.692Z,50.63
2023-04-25T18:04:46.348Z,51.00
2023-04-25T18:07:14.309Z,50.80
2023-04-25T18:09:42.269Z,51.32
2023-04-25T18:12:11.764Z,51.12
2023-04-25T18:14:39.852Z,51.52
2023-04-25T18:17:09.139Z,51.31
2023-04-25T18:19:37.212Z,51.83
2023-04-25T18:22:05.184Z,51.90
2023-04-25T18:24:33.565Z,52.40
2023-04-25T18:27:06.010Z,52.63
2023-04-25T18:29:37.434Z,52.95
2023-04-25T18:32:06.597Z,52.65
2023-04-25T18:34:35.289Z,52.68
2023-04-25T18:37:03.292Z,52.83
2023-04-25T18:39:31.244Z,52.66
2023-04-25T18:42:04.648Z,53.35
2023-04-25T18:44:39.593Z,52.86
2023-04-25T18:47:07.888Z,52.65
2023-04-25T18:49:37.522Z,52.38
2023-04-25T18:52:05.578Z,53.14
2023-04-25T18:54:33.452Z,54.72
2023-04-25T18:57:01.533Z,55.86
2023-04-25T18:59:29.479Z,56.85
2023-04-25T19:02:00.607Z,57.36
2023-04-25T19:04:29.272Z,56.23
2023-04-25T19:06:57.177Z,56.02
2023-04-25T19:09:25.300Z,57.94
2023-04-25T19:11:53.258Z,59.01
2023-04-25T19:14:21.225Z,60.34
2023-04-25T19:16:49.209Z,61.15
2023-04-25T19:19:18.506Z,61.87
2023-04-25T19:21:46.582Z,62.59
2023-04-25T19:24:14.648Z,62.95
2023-04-25T19:26:42.426Z,62.72
2023-04-25T19:29:13.396Z,62.55
2023-04-25T19:31:44.032Z,61.63
2023-04-25T19:34:13.084Z,60.76
2023-04-25T19:36:44.131Z,59.49
2023-04-25T19:39:12.018Z,58.38
2023-04-25T19:41:40.324Z,60.22
2023-04-25T19:44:09.477Z,60.53
2023-04-25T19:46:38.290Z,61.92
2023-04-25T19:49:07.678Z,63.98
2023-04-25T19:51:36.593Z,64.11
2023-04-25T19:54:06.091Z,62.32
2023-04-25T19:56:33.993Z,58.71
2023-04-25T19:59:01.842Z,56.98
2023-04-25T20:01:30.402Z,55.24
2023-04-25T20:03:58.394Z,55.91
2023-04-25T20:06:27.122Z,57.29
2023-04-25T20:08:54.965Z,59.64
2023-04-25T20:11:24.185Z,59.55
2023-04-25T20:13:52.243Z,58.08
2023-04-25T20:16:21.928Z,57.52
2023-04-25T20:18:50.843Z,57.17
2023-04-25T20:21:18.913Z,58.05
2023-04-25T20:23:47.328Z,58.63
2023-04-25T20:26:15.200Z,60.43
2023-04-25T20:28:44.383Z,61.43
2023-04-25T20:31:12.424Z,62.32
2023-04-25T20:33:40.303Z,60.64
2023-04-25T20:36:08.091Z,59.96
2023-04-25T20:38:35.738Z,57.59
2023-04-25T20:41:03.772Z,57.65
2023-04-25T20:43:32.337Z,57.57
2023-04-25T20:46:01.636Z,58.16
2023-04-25T20:48:29.411Z,58.56
2023-04-25T20:50:58.559Z,59.39
2023-04-25T20:53:26.279Z,59.21
2023-04-25T20:55:54.056Z,60.93
2023-04-25T20:58:21.816Z,63.19
2023-04-25T21:00:50.685Z,63.74
2023-04-25T21:03:20.721Z,64.77
2023-04-25T21:05:48.628Z,63.11
2023-04-25T21:08:16.704Z,62.84
2023-04-25T21:10:44.415Z,62.17
2023-04-25T21:13:12.772Z,62.67
2023-04-25T21:15:40.512Z,64.10
2023-04-25T21:18:08.337Z,63.90
2023-04-25T21:20:37.684Z,64.93
2023-04-25T21:23:05.420Z,64.96
2023-04-25T21:25:33.155Z,65.05
2023-04-25T21:28:02.457Z,65.32
2023-04-25T21:30:30.803Z,65.69
2023-04-25T21:32:58.577Z,66.93
2023-04-25T21:35:26.499Z,67.60
2023-04-25T21:37:56.110Z,68.20
2023-04-25T21:40:24.114Z,68.58
2023-04-25T21:42:53.408Z,68.93
2023-04-25T21:45:22.132Z,68.47
2023-04-25T21:47:50.802Z,68.81
2023-04-25T21:50:19.565Z,69.37
2023-04-25T21:52:48.198Z,69.33
2023-04-25T21:55:17.576Z,69.50
2023-04-25T21:57:46.317Z,69.81
2023-04-25T22:00:21.778Z,69.92
2023-04-25T22:02:49.729Z,69.89
2023-04-25T22:05:20.208Z,69.93
2023-04-25T22:07:48.240Z,69.94
2023-04-25T22:10:17.829Z,69.43
2023-04-25T22:12:46.769Z,69.96
2023-04-25T22:15:14.608Z,70.06
2023-04-25T22:17:42.407Z,71.09
2023-04-25T22:20:13.995Z,70.78
2023-04-25T22:22:41.934Z,70.60
2023-04-25T22:25:11.919Z,71.18
2023-04-25T22:27:42.896Z,71.86
2023-04-25T22:30:12.950Z,71.44
2023-04-25T22:32:41.507Z,72.21
2023-04-25T22:35:10.467Z,72.24
2023-04-25T22:37:38.677Z,72.88
2023-04-25T22:40:08.920Z,73.64
2023-04-25T22:42:43.187Z,74.33
2023-04-25T22:45:12.224Z,74.57
2023-04-25T22:47:40.863Z,74.42
2023-04-25T22:50:13.154Z,74.80
2023-04-25T22:52:42.604Z,74.81
2023-04-25T22:55:12.477Z,75.22
2023-04-25T22:57:42.415Z,75.42
2023-04-25T23:00:16.071Z,75.89
2023-04-25T23:02:45.724Z,76.37
2023-04-25T23:05:14.205Z,76.14
2023-04-25T23:07:43.633Z,77.01
2023-04-25T23:10:12.139Z,77.63
2023-04-25T23:12:41.261Z,78.01
2023-04-25T23:15:10.218Z,77.88
2023-04-25T23:17:38.187Z,77.54
2023-04-25T23:20:07.740Z,77.97
2023-04-25T23:22:36.061Z,78.68
2023-04-25T23:25:03.860Z,78.31
2023-04-25T23:27:31.519Z,78.31
2023-04-25T23:30:00.548Z,78.66
2023-04-25T23:32:28.465Z,78.44
2023-04-25T23:34:56.248Z,79.11
2023-04-25T23:37:24.019Z,79.45
2023-04-25T23:39:52.098Z,79.49
2023-04-25T23:42:20.313Z,80.53
2023-04-25T23:44:48.039Z,80.93
2023-04-25T23:47:18.920Z,81.07
2023-04-25T23:49:46.854Z,80.96
2023-04-25T23:52:14.520Z,80.65
2023-04-25T23:54:43.328Z,80.95
2023-04-25T23:57:12.219Z,81.04
2023-04-25T23:59:39.854Z,81.07
